Time;durP1;ratioP1;P1;durP2;ratioP2;P2;SDS_P1;SDS_P2;PMS_P1;PMS_P2;Temp;Humidity;BMP_temperature;BMP_pressure;BME280_temperature;BME280_humidity;BME280_pressure;Samples;Min_cycle;Max_cycle;Signal;HPM_P1;HPM_P2
2022/08/30 00:02:43;;;;;;;4.00;3.47;;;11.00;85.20;;;;;;5033556;28;20466;-27
2022/08/30 00:05:09;;;;;;;5.93;4.53;;;11.10;95.30;;;;;;5031764;28;20064;-28
2022/08/30 00:07:35;;;;;;;7.60;5.80;;;11.00;99.90;;;;;;5032120;28;20087;-27
2022/08/30 00:10:02;;;;;;;20.45;6.30;;;10.90;93.40;;;;;;5033698;28;20049;-27
2022/08/30 00:12:28;;;;;;;7.35;6.13;;;11.20;99.90;;;;;;5033148;28;20120;-27
2022/08/30 00:14:53;;;;;;;5.65;4.75;;;11.20;99.90;;;;;;5030829;28;20571;-27
2022/08/30 00:17:19;;;;;;;4.47;4.05;;;11.20;99.90;;;;;;5031182;28;20041;-27
2022/08/30 00:19:45;;;;;;;18.23;5.00;;;11.40;99.90;;;;;;5031740;28;20120;-27
2022/08/30 00:22:11;;;;;;;4.82;3.88;;;11.30;99.90;;;;;;5032286;28;20387;-27
2022/08/30 00:24:37;;;;;;;8.00;5.07;;;11.30;99.90;;;;;;5033580;28;20087;-27
2022/08/30 00:27:03;;;;;;;5.55;5.05;;;11.30;94.00;;;;;;5032079;28;20077;-27
2022/08/30 00:29:29;;;;;;;7.10;4.95;;;11.10;74.90;;;;;;5033644;28;20124;-27
2022/08/30 00:31:54;;;;;;;8.00;4.45;;;11.00;99.90;;;;;;5048106;28;20113;-27
2022/08/30 00:34:20;;;;;;;3.80;3.30;;;11.20;99.90;;;;;;5032272;28;20211;-28
2022/08/30 00:36:46;;;;;;;221.68;15.60;;;11.10;97.50;;;;;;5033542;28;20045;-27
2022/08/30 00:39:11;;;;;;;262.05;12.73;;;11.30;99.90;;;;;;5031433;28;20085;-27
2022/08/30 00:41:38;;;;;;;56.03;4.65;;;11.00;99.90;;;;;;5031015;28;20087;-27
2022/08/30 00:44:03;;;;;;;2.92;1.75;;;11.20;99.90;;;;;;5032732;28;20050;-28
2022/08/30 00:46:31;;;;;;;4.13;2.80;;;10.90;99.90;;;;;;5037110;28;20099;-27
2022/08/30 00:49:01;;;;;;;83.47;3.53;;;10.90;99.90;;;;;;5036465;28;20573;-28
2022/08/30 00:51:27;;;;;;;3.42;1.30;;;10.90;99.90;;;;;;5035819;28;20180;-27
2022/08/30 00:53:55;;;;;;;2.35;1.27;;;10.80;99.90;;;;;;5037433;28;20124;-27
2022/08/30 00:56:23;;;;;;;31.05;2.78;;;10.70;99.90;;;;;;5036483;28;20049;-27
2022/08/30 00:58:53;;;;;;;163.52;6.45;;;10.70;99.90;;;;;;5036220;28;20044;-27
2022/08/30 01:01:19;;;;;;;73.43;4.78;;;10.70;99.90;;;;;;5037295;28;20041;-27
2022/08/30 01:03:46;;;;;;;302.65;10.88;;;10.80;99.90;;;;;;5037812;28;20081;-27
2022/08/30 01:06:15;;;;;;;219.43;9.25;;;10.80;99.90;;;;;;5035412;28;20466;-26
2022/08/30 01:08:43;;;;;;;74.88;4.80;;;10.80;99.90;;;;;;5035561;28;20053;-27
2022/08/30 01:11:11;;;;;;;7.00;2.83;;;10.90;99.90;;;;;;5034146;28;20045;-27
2022/08/30 01:13:37;;;;;;;1.40;1.20;;;11.10;99.90;;;;;;5035183;28;20120;-27
2022/08/30 01:16:04;;;;;;;3.10;1.63;;;10.80;99.90;;;;;;5036796;28;20067;-27
2022/08/30 01:18:30;;;;;;;2.42;1.98;;;10.80;99.90;;;;;;5037851;28;20087;-27
2022/08/30 01:21:15;;;;;;;2.67;2.47;;;11.10;99.90;;;;;;5035997;28;20050;-27
2022/08/30 01:23:44;;;;;;;1.42;1.30;;;11.00;99.90;;;;;;5029791;28;20049;-27
2022/08/30 01:26:11;;;;;;;1.45;1.17;;;11.10;99.90;;;;;;5035850;28;20407;-27
2022/08/30 01:28:38;;;;;;;2.88;1.30;;;11.10;99.90;;;;;;5021370;28;20430;-27
2022/08/30 01:31:04;;;;;;;1.40;1.30;;;11.00;99.90;;;;;;5035906;28;20037;-28
2022/08/30 01:33:30;;;;;;;2.03;1.58;;;11.10;99.90;;;;;;5035764;28;20149;-28
2022/08/30 01:36:04;;;;;;;2.92;1.73;;;10.80;99.90;;;;;;5034954;28;20053;-28
2022/08/30 01:38:37;;;;;;;2.30;2.10;;;10.90;99.90;;;;;;5029471;28;20165;-27
2022/08/30 01:41:12;;;;;;;3.78;1.88;;;10.80;99.90;;;;;;5035160;28;20519;-28
2022/08/30 01:43:37;;;;;;;2.85;2.58;;;11.00;99.90;;;;;;5036559;28;20080;-29
2022/08/30 01:46:03;;;;;;;4.57;3.03;;;10.90;99.90;;;;;;5036045;28;20049;-31
2022/08/30 01:48:29;;;;;;;3.80;3.50;;;11.00;99.90;;;;;;5035854;28;20126;-28
2022/08/30 01:50:55;;;;;;;4.45;3.88;;;10.70;99.90;;;;;;5036438;28;20052;-27
2022/08/30 01:53:21;;;;;;;3.45;3.15;;;10.80;99.90;;;;;;5029689;28;20499;-28
2022/08/30 01:55:46;;;;;;;6.00;4.28;;;10.90;99.90;;;;;;5035132;28;20440;-28
2022/08/30 01:58:12;;;;;;;3.90;3.58;;;10.90;99.90;;;;;;5035548;28;20045;-27
2022/08/30 02:00:39;;;;;;;4.82;4.32;;;11.00;99.90;;;;;;5036212;28;20088;-27
2022/08/30 02:03:05;;;;;;;5.20;4.70;;;11.00;99.90;;;;;;5033380;28;20111;-27
2022/08/30 02:05:32;;;;;;;6.03;4.93;;;11.00;99.90;;;;;;5034667;28;20053;-28
2022/08/30 02:07:58;;;;;;;6.32;5.38;;;10.80;99.90;;;;;;5034321;28;20045;-28
2022/08/30 02:10:23;;;;;;;9.75;6.18;;;11.10;99.90;;;;;;5035347;28;20376;-27
2022/08/30 02:12:49;;;;;;;5.72;5.13;;;11.20;99.90;;;;;;5033883;28;20484;-28
2022/08/30 02:15:15;;;;;;;5.25;4.75;;;10.90;99.90;;;;;;5033180;28;20041;-28
2022/08/30 02:17:41;;;;;;;5.93;5.18;;;11.00;99.90;;;;;;5035929;28;20089;-27
2022/08/30 02:20:08;;;;;;;5.15;4.57;;;11.00;99.90;;;;;;5035917;28;20052;-28
2022/08/30 02:22:34;;;;;;;6.15;5.00;;;11.20;99.90;;;;;;5035124;28;20048;-28
2022/08/30 02:24:59;;;;;;;6.53;5.80;;;11.30;99.90;;;;;;5033977;28;20038;-28
2022/08/30 02:27:25;;;;;;;11.27;7.35;;;11.40;99.90;;;;;;5035992;28;20041;-28
2022/08/30 02:29:51;;;;;;;11.80;8.20;;;11.60;99.90;;;;;;5033751;28;20144;-28
2022/08/30 02:32:17;;;;;;;14.68;10.05;;;11.80;99.90;;;;;;5034723;28;20098;-28
2022/08/30 02:34:43;;;;;;;15.65;10.38;;;11.70;99.90;;;;;;5049534;28;20057;-28
2022/08/30 02:37:09;;;;;;;16.80;10.35;;;12.20;99.90;;;;;;5050493;28;20057;-28
2022/08/30 02:39:35;;;;;;;17.73;11.02;;;12.30;99.90;;;;;;5033612;28;20442;-28
2022/08/30 02:42:01;;;;;;;14.13;10.85;;;12.10;99.90;;;;;;5050816;28;20060;-28
2022/08/30 02:44:27;;;;;;;19.73;11.18;;;12.40;99.90;;;;;;5034261;28;20103;-28
2022/08/30 02:46:53;;;;;;;22.25;12.50;;;12.70;99.90;;;;;;5034320;28;20085;-29
2022/08/30 02:49:18;;;;;;;16.58;11.65;;;12.60;99.90;;;;;;5034132;28;20553;-28
2022/08/30 02:51:44;;;;;;;15.15;10.52;;;12.80;99.90;;;;;;5035236;28;20048;-28
2022/08/30 02:54:14;;;;;;;18.85;11.82;;;12.60;99.90;;;;;;5033520;28;20128;-28
2022/08/30 02:56:41;;;;;;;20.05;12.85;;;12.70;99.90;;;;;;5049287;28;20046;-28
2022/08/30 02:59:07;;;;;;;19.48;12.55;;;13.10;99.90;;;;;;5034490;28;20045;-29
2022/08/30 03:01:35;;;;;;;21.67;14.68;;;12.90;99.90;;;;;;5034338;28;20045;-29
2022/08/30 03:04:01;;;;;;;18.10;12.00;;;13.20;99.90;;;;;;5034453;28;20135;-29
2022/08/30 03:06:26;;;;;;;18.75;12.65;;;12.80;99.90;;;;;;5032655;28;20111;-28
2022/08/30 03:08:52;;;;;;;16.80;12.52;;;13.20;99.90;;;;;;5048134;28;20499;-30
2022/08/30 03:11:20;;;;;;;14.77;11.32;;;13.10;99.90;;;;;;5034213;28;20049;-30
2022/08/30 03:13:45;;;;;;;21.65;12.45;;;13.10;99.90;;;;;;5032149;28;20096;-29
2022/08/30 03:16:11;;;;;;;21.27;12.43;;;12.80;99.90;;;;;;5034290;28;20433;-30
2022/08/30 03:18:37;;;;;;;17.10;11.65;;;13.10;99.90;;;;;;5034093;28;20053;-28
2022/08/30 03:21:08;;;;;;;20.60;12.20;;;13.10;99.90;;;;;;5034712;28;20072;-29
2022/08/30 03:23:34;;;;;;;20.63;12.27;;;13.20;99.90;;;;;;5049874;28;20049;-28
2022/08/30 03:25:59;;;;;;;19.25;11.55;;;13.10;99.90;;;;;;5030852;28;20053;-29
2022/08/30 03:28:25;;;;;;;14.20;10.73;;;13.00;99.90;;;;;;5032356;28;20049;-29
2022/08/30 03:30:51;;;;;;;15.25;10.90;;;12.60;99.90;;;;;;5034553;28;20056;-29
2022/08/30 03:33:17;;;;;;;18.63;11.10;;;12.50;99.90;;;;;;5034317;28;20064;-29
2022/08/30 03:35:43;;;;;;;17.20;10.55;;;12.90;99.90;;;;;;5034681;28;20103;-29
2022/08/30 03:38:08;;;;;;;17.50;11.93;;;12.40;99.90;;;;;;5031379;28;20503;-29
2022/08/30 03:40:34;;;;;;;16.83;12.18;;;12.80;99.90;;;;;;5033513;28;20052;-29
2022/08/30 03:43:00;;;;;;;15.13;11.65;;;12.50;99.90;;;;;;5033350;28;20526;-30
2022/08/30 03:45:26;;;;;;;17.52;11.40;;;12.40;99.90;;;;;;5015635;28;20184;-29
2022/08/30 03:47:51;;;;;;;16.08;12.18;;;12.60;99.90;;;;;;5032369;28;20087;-30
2022/08/30 03:50:17;;;;;;;16.20;12.50;;;12.30;99.90;;;;;;5034172;28;20047;-29
2022/08/30 03:52:44;;;;;;;17.23;12.55;;;12.50;99.90;;;;;;5032245;28;20049;-29
2022/08/30 03:55:11;;;;;;;21.65;13.40;;;12.60;99.90;;;;;;5032520;28;20060;-29
2022/08/30 03:57:38;;;;;;;18.50;13.88;;;12.60;99.90;;;;;;5033302;28;20067;-29
2022/08/30 04:00:06;;;;;;;17.58;12.13;;;12.30;99.90;;;;;;5032901;28;20054;-29
2022/08/30 04:02:31;;;;;;;18.70;13.25;;;12.50;99.90;;;;;;5032832;28;20042;-29
2022/08/30 04:04:57;;;;;;;19.25;13.90;;;12.50;99.90;;;;;;5048507;28;20048;-29
2022/08/30 04:07:23;;;;;;;21.55;14.82;;;12.20;99.90;;;;;;5032748;28;20084;-29
2022/08/30 04:09:48;;;;;;;17.23;12.88;;;12.10;99.90;;;;;;5032249;28;20055;-29
2022/08/30 04:12:14;;;;;;;26.65;12.50;;;12.40;99.90;;;;;;5032699;28;20052;-29
2022/08/30 04:14:40;;;;;;;19.92;14.00;;;12.00;99.90;;;;;;5032047;28;20045;-29
2022/08/30 04:17:05;;;;;;;19.13;12.65;;;12.00;99.90;;;;;;5032844;28;20049;-29
2022/08/30 04:19:31;;;;;;;16.27;10.32;;;12.00;99.90;;;;;;5032766;28;20041;-29
2022/08/30 04:21:57;;;;;;;19.00;12.20;;;12.10;99.90;;;;;;5033763;28;20514;-29
2022/08/30 04:24:23;;;;;;;15.50;12.00;;;11.80;99.90;;;;;;5031890;28;20543;-29
2022/08/30 04:26:49;;;;;;;13.45;10.23;;;11.80;99.90;;;;;;5032960;28;20046;-30
2022/08/30 04:29:16;;;;;;;13.23;9.15;;;11.70;99.90;;;;;;5032969;28;20052;-29
2022/08/30 04:31:42;;;;;;;14.30;11.07;;;12.20;99.90;;;;;;5032449;28;20041;-30
2022/08/30 04:34:10;;;;;;;13.07;9.57;;;12.20;99.90;;;;;;5033403;28;20148;-31
2022/08/30 04:36:35;;;;;;;13.70;10.95;;;12.10;99.90;;;;;;5032310;28;20037;-30
2022/08/30 04:39:01;;;;;;;12.65;9.73;;;12.10;99.90;;;;;;5032644;28;20056;-30
2022/08/30 04:41:27;;;;;;;14.75;11.05;;;11.80;99.90;;;;;;5032839;28;20488;-29
2022/08/30 04:43:53;;;;;;;12.15;9.88;;;11.50;99.90;;;;;;5032769;28;20060;-29
2022/08/30 04:46:18;;;;;;;12.32;9.57;;;11.90;99.90;;;;;;5047824;28;20056;-29
2022/08/30 04:48:45;;;;;;;15.77;10.00;;;11.60;99.90;;;;;;5049170;28;20111;-29
2022/08/30 04:51:13;;;;;;;12.13;10.13;;;11.50;99.90;;;;;;5032745;28;20488;-29
2022/08/30 04:53:40;;;;;;;16.23;10.27;;;11.50;99.90;;;;;;5032725;28;20049;-29
2022/08/30 04:56:16;;;;;;;14.40;11.02;;;11.50;99.90;;;;;;5031142;28;20038;-29
2022/08/30 04:58:46;;;;;;;17.38;11.02;;;11.90;99.90;;;;;;5016987;28;20041;-30
2022/08/30 05:01:14;;;;;;;15.68;11.75;;;11.70;99.90;;;;;;5048225;28;20391;-29
2022/08/30 05:03:40;;;;;;;15.20;11.07;;;11.40;99.90;;;;;;5033285;28;20046;-29
2022/08/30 05:06:06;;;;;;;15.15;12.80;;;11.60;99.90;;;;;;5031575;28;20057;-30
2022/08/30 05:08:31;;;;;;;17.50;11.82;;;11.40;99.90;;;;;;5031462;28;20056;-30
2022/08/30 05:10:57;;;;;;;19.90;12.35;;;11.50;99.90;;;;;;5032831;28;20041;-30
2022/08/30 05:13:23;;;;;;;16.25;12.48;;;11.50;99.90;;;;;;5031333;28;20057;-31
2022/08/30 05:15:49;;;;;;;18.55;12.75;;;12.00;99.90;;;;;;5031792;28;20038;-31
2022/08/30 05:18:15;;;;;;;18.33;11.73;;;11.70;99.90;;;;;;5031355;28;20483;-31
2022/08/30 05:20:42;;;;;;;18.08;12.90;;;11.90;99.90;;;;;;5032590;28;20058;-30
2022/08/30 05:23:07;;;;;;;14.65;10.85;;;11.70;99.90;;;;;;5032523;28;20051;-31
2022/08/30 05:25:37;;;;;;;16.35;12.05;;;11.90;99.90;;;;;;5032848;28;20038;-32
2022/08/30 05:28:04;;;;;;;18.10;12.00;;;11.70;99.90;;;;;;5031279;28;20080;-31
2022/08/30 05:30:32;;;;;;;17.15;12.00;;;12.10;99.90;;;;;;5034664;28;20107;-31
2022/08/30 05:32:58;;;;;;;14.75;11.65;;;11.80;99.90;;;;;;5036249;28;20049;-31
2022/08/30 05:35:24;;;;;;;19.77;12.98;;;12.10;99.90;;;;;;5035904;28;20054;-31
2022/08/30 05:37:50;;;;;;;17.00;11.75;;;11.80;99.90;;;;;;5036978;28;20465;-32
2022/08/30 05:40:18;;;;;;;17.02;11.27;;;12.30;99.90;;;;;;5035594;28;20049;-31
2022/08/30 05:42:45;;;;;;;12.77;10.85;;;12.00;99.90;;;;;;5034783;28;20510;-31
2022/08/30 05:45:12;;;;;;;16.55;11.20;;;12.10;99.90;;;;;;5035496;28;20049;-31
2022/08/30 05:47:38;;;;;;;14.15;11.13;;;12.20;99.90;;;;;;5036234;28;20076;-32
2022/08/30 05:50:08;;;;;;;15.07;10.82;;;12.30;99.90;;;;;;5035332;28;20080;-31
2022/08/30 05:52:38;;;;;;;13.63;9.98;;;12.20;99.90;;;;;;5035784;28;20052;-31
2022/08/30 05:55:06;;;;;;;16.80;9.45;;;12.80;99.90;;;;;;5018901;28;20042;-32
2022/08/30 05:57:33;;;;;;;15.88;9.35;;;12.60;99.90;;;;;;5034216;28;20044;-31
2022/08/30 06:00:03;;;;;;;11.90;9.25;;;12.50;99.90;;;;;;5034541;28;20053;-31
2022/08/30 06:02:28;;;;;;;11.38;8.70;;;13.00;99.90;;;;;;5035568;28;20128;-31
2022/08/30 06:04:54;;;;;;;12.70;9.02;;;12.90;99.90;;;;;;5035725;28;20084;-32
2022/08/30 06:07:20;;;;;;;12.70;8.32;;;13.20;99.90;;;;;;5035613;28;20522;-32
2022/08/30 06:09:46;;;;;;;10.90;7.80;;;13.40;99.90;;;;;;5050820;28;20052;-32
2022/08/30 06:12:11;;;;;;;9.45;8.30;;;12.90;99.90;;;;;;5033577;28;20495;-32
2022/08/30 06:14:38;;;;;;;9.50;7.10;;;13.60;99.90;;;;;;5034197;28;20049;-33
2022/08/30 06:17:04;;;;;;;12.82;7.20;;;13.50;99.90;;;;;;5033968;28;20038;-32
2022/08/30 06:19:30;;;;;;;10.77;7.38;;;13.40;99.90;;;;;;5051864;28;20041;-32
2022/08/30 06:21:56;;;;;;;9.38;7.60;;;13.80;99.90;;;;;;5032665;28;20060;-32
2022/08/30 06:24:22;;;;;;;16.50;7.07;;;13.90;99.90;;;;;;5035269;28;20132;-33
2022/08/30 06:26:48;;;;;;;8.32;6.03;;;13.50;99.90;;;;;;5034039;28;20045;-32
2022/08/30 06:29:17;;;;;;;6.63;5.20;;;13.60;99.90;;;;;;5033857;28;20053;-32
2022/08/30 06:31:43;;;;;;;6.80;5.38;;;14.30;99.90;;;;;;5033535;28;20039;-31
2022/08/30 06:34:08;;;;;;;9.00;4.90;;;14.40;99.90;;;;;;5034880;28;20062;-32
2022/08/30 06:36:35;;;;;;;6.03;4.60;;;14.40;99.90;;;;;;5035756;28;20133;-31
2022/08/30 06:39:01;;;;;;;7.07;5.20;;;14.20;99.90;;;;;;5033233;28;20450;-31
2022/08/30 06:41:30;;;;;;;11.60;5.28;;;14.70;99.90;;;;;;5034179;28;20055;-31
2022/08/30 06:43:57;;;;;;;6.65;3.95;;;14.40;99.90;;;;;;5034288;28;20847;-31
2022/08/30 06:46:26;;;;;;;6.00;3.50;;;14.70;99.90;;;;;;5034349;28;20041;-32
2022/08/30 06:48:55;;;;;;;6.30;3.72;;;14.80;99.90;;;;;;5034567;28;20411;-32
2022/08/30 06:51:25;;;;;;;5.53;3.13;;;14.80;99.90;;;;;;5034654;28;20056;-32
2022/08/30 06:53:50;;;;;;;6.53;3.25;;;15.20;99.90;;;;;;5035243;28;20053;-31
2022/08/30 06:56:17;;;;;;;4.45;2.58;;;15.30;99.90;;;;;;5032939;28;20045;-31
2022/08/30 06:58:46;;;;;;;6.63;2.67;;;15.20;99.90;;;;;;5033657;28;20056;-31
2022/08/30 07:01:16;;;;;;;5.45;2.50;;;15.50;99.90;;;;;;5035637;28;20172;-31
2022/08/30 07:03:42;;;;;;;5.32;3.33;;;15.40;99.90;;;;;;5033251;28;20041;-31
2022/08/30 07:06:09;;;;;;;4.93;3.72;;;15.60;70.50;;;;;;5033113;28;20124;-31
2022/08/30 07:08:35;;;;;;;4.88;1.70;;;15.60;1.00;;;;;;5034038;28;20049;-31
2022/08/30 07:11:02;;;;;;;5.00;2.28;;;15.70;99.90;;;;;;5035380;28;20057;-31
2022/08/30 07:13:28;;;;;;;3.05;1.75;;;16.00;99.90;;;;;;5046954;28;20049;-31
2022/08/30 07:15:53;;;;;;;2.20;1.40;;;15.90;99.90;;;;;;5023794;28;20056;-31
2022/08/30 07:21:09;;;;;;;6.07;1.70;;;16.20;1.00;;;;;;5034874;28;20050;-31
2022/08/30 07:23:36;;;;;;;3.40;1.58;;;16.30;99.90;;;;;;5034716;28;20132;-30
2022/08/30 07:26:07;;;;;;;7.30;2.30;;;16.40;99.90;;;;;;5034690;28;20107;-30
2022/08/30 07:28:36;;;;;;;5.15;1.70;;;16.60;1.00;;;;;;5035395;28;20041;-29
2022/08/30 07:31:02;;;;;;;4.57;1.42;;;16.60;99.90;;;;;;5034749;28;20046;-29
2022/08/30 07:33:30;;;;;;;3.45;0.90;;;16.70;90.30;;;;;;5033508;28;20499;-29
2022/08/30 07:35:56;;;;;;;2.50;1.15;;;16.90;1.00;;;;;;5034460;28;20107;-29
2022/08/30 07:38:24;;;;;;;3.53;1.30;;;17.00;1.00;;;;;;5034450;28;20383;-28
2022/08/30 07:40:50;;;;;;;1.63;0.93;;;17.10;99.90;;;;;;5034304;28;20049;-30
2022/08/30 07:43:16;;;;;;;7.80;1.60;;;17.20;99.90;;;;;;5034879;28;20476;-29
2022/08/30 07:45:42;;;;;;;2.95;1.13;;;17.30;97.50;;;;;;5034292;28;20478;-29
2022/08/30 07:48:10;;;;;;;4.00;1.20;;;17.30;99.90;;;;;;5033998;28;20051;-29
2022/08/30 07:50:37;;;;;;;3.22;1.05;;;17.40;25.60;;;;;;5032519;28;20092;-28
2022/08/30 07:53:03;;;;;;;3.60;1.05;;;17.50;1.00;;;;;;5033654;28;20507;-29
2022/08/30 07:55:34;;;;;;;2.10;1.10;;;17.60;1.00;;;;;;5034042;28;20088;-29
2022/08/30 07:57:59;;;;;;;2.13;1.00;;;17.60;1.00;;;;;;5034406;28;20080;-28
2022/08/30 08:00:26;;;;;;;5.88;1.95;;;17.70;1.00;;;;;;5049235;28;20470;-28
2022/08/30 08:02:51;;;;;;;5.18;1.80;;;17.80;1.00;;;;;;5033984;28;20091;-28
2022/08/30 08:05:17;;;;;;;2.92;1.42;;;17.80;99.90;;;;;;5033998;28;20045;-28
2022/08/30 08:07:43;;;;;;;5.97;1.20;;;17.90;99.90;;;;;;5034564;28;20422;-28
2022/08/30 08:10:09;;;;;;;3.03;1.50;;;18.00;99.90;;;;;;5032863;28;20041;-28
2022/08/30 08:12:35;;;;;;;2.05;1.05;;;18.10;99.90;;;;;;5033892;28;20075;-28
2022/08/30 08:15:04;;;;;;;4.40;0.88;;;18.30;99.90;;;;;;5032993;28;20479;-28
2022/08/30 08:17:29;;;;;;;3.10;1.10;;;18.30;99.90;;;;;;5033779;28;20052;-28
2022/08/30 08:19:55;;;;;;;2.40;1.30;;;18.40;99.90;;;;;;5033164;28;20045;-28
2022/08/30 08:22:21;;;;;;;1.98;1.17;;;18.50;99.90;;;;;;5031312;28;20249;-28
2022/08/30 08:24:48;;;;;;;2.92;1.00;;;18.60;1.00;;;;;;5033022;28;20049;-28
2022/08/30 08:27:13;;;;;;;5.10;1.00;;;18.70;1.00;;;;;;5031830;28;20049;-29
2022/08/30 08:29:39;;;;;;;5.43;0.93;;;18.80;1.00;;;;;;5033621;28;20377;-28
2022/08/30 08:32:05;;;;;;;2.10;0.88;;;18.90;1.00;;;;;;5034245;28;20096;-28
2022/08/30 08:34:31;;;;;;;2.08;0.75;;;19.00;1.00;;;;;;5033707;28;20065;-28
2022/08/30 08:36:56;;;;;;;4.55;0.80;;;19.10;99.90;;;;;;5034066;28;20049;-28
2022/08/30 08:39:22;;;;;;;3.45;1.00;;;19.10;99.90;;;;;;5033277;28;20046;-28
2022/08/30 08:42:24;;;;;;;3.92;1.40;;;19.10;99.90;;;;;;5031585;28;20049;-28
2022/08/30 08:44:58;;;;;;;2.47;1.02;;;19.30;99.90;;;;;;5034007;28;20136;-28
2022/08/30 08:47:47;;;;;;;6.50;1.10;;;19.50;99.90;;;;;;5032483;28;20095;-28
2022/08/30 08:50:18;;;;;;;2.65;1.05;;;19.70;99.90;;;;;;5039315;28;20045;-28
2022/08/30 08:55:52;;;;;;;5.15;0.90;;;19.90;84.20;;;;;;5034250;28;20060;-28
2022/08/30 08:58:43;;;;;;;3.55;0.90;;;20.00;99.90;;;;;;5033401;28;20133;-28
2022/08/30 09:01:11;;;;;;;5.88;1.80;;;20.20;1.00;;;;;;5032321;28;20053;-28
2022/08/30 09:03:38;;;;;;;2.92;1.00;;;20.30;88.50;;;;;;5031600;28;20049;-28
2022/08/30 09:06:13;;;;;;;6.13;1.00;;;20.40;99.90;;;;;;5036101;28;20046;-28
2022/08/30 09:08:39;;;;;;;3.00;0.90;;;20.50;99.90;;;;;;5037582;28;20053;-28
2022/08/30 09:11:15;;;;;;;1.92;0.73;;;21.00;99.90;;;;;;5037488;28;20045;-28
2022/08/30 09:13:41;;;;;;;3.53;1.05;;;21.70;1.00;;;;;;5036143;28;20053;-28
2022/08/30 09:16:07;;;;;;;4.10;1.02;;;21.60;99.90;;;;;;5035065;28;20107;-28
2022/08/30 09:18:46;;;;;;;3.00;1.10;;;21.80;99.90;;;;;;5037590;28;20472;-28
2022/08/30 09:21:22;;;;;;;3.25;0.80;;;21.80;1.00;;;;;;5037037;28;20487;-28
2022/08/30 09:23:55;;;;;;;2.95;1.05;;;21.90;1.00;;;;;;5035650;28;20579;-28
2022/08/30 09:26:34;;;;;;;4.63;1.15;;;22.50;99.90;;;;;;5036835;28;20049;-28
2022/08/30 09:29:00;;;;;;;6.20;1.10;;;23.00;99.90;;;;;;5036945;28;20124;-28
2022/08/30 09:31:31;;;;;;;3.85;0.73;;;23.60;66.20;;;;;;5035662;28;20092;-28
2022/08/30 09:34:04;;;;;;;2.28;0.70;;;24.20;17.00;;;;;;5036919;28;20419;-28
2022/08/30 09:36:43;;;;;;;2.08;1.05;;;24.20;5.00;;;;;;5033790;28;20411;-28
2022/08/30 09:39:26;;;;;;;2.15;0.82;;;24.40;1.00;;;;;;5036696;28;20049;-28
2022/08/30 09:41:52;;;;;;;2.58;0.80;;;24.70;1.00;;;;;;5037548;28;20053;-28
2022/08/30 09:44:23;;;;;;;2.92;0.70;;;24.70;15.30;;;;;;5036610;28;20395;-29
2022/08/30 09:47:02;;;;;;;1.92;0.80;;;25.00;1.00;;;;;;5034538;28;20495;-28
2022/08/30 09:49:42;;;;;;;2.30;0.93;;;25.10;1.00;;;;;;5036611;28;20049;-28
2022/08/30 09:52:17;;;;;;;3.30;1.00;;;25.20;1.00;;;;;;5035299;28;20476;-29
2022/08/30 09:55:03;;;;;;;3.13;0.90;;;24.70;1.00;;;;;;5035396;28;20052;-28
2022/08/30 09:57:43;;;;;;;4.78;1.15;;;24.60;1.00;;;;;;5032062;28;20479;-28
2022/08/30 10:00:21;;;;;;;2.28;1.02;;;24.80;1.00;;;;;;5038363;28;20067;-29
2022/08/30 10:03:09;;;;;;;2.63;0.77;;;25.10;1.00;;;;;;5039186;28;20045;-29
2022/08/30 10:05:44;;;;;;;3.25;0.80;;;24.90;1.00;;;;;;5035405;28;20053;-28
2022/08/30 10:08:53;;;;;;;9.95;0.90;;;24.80;1.00;;;;;;5036958;28;20499;-29
2022/08/30 10:11:26;;;;;;;2.13;1.00;;;25.10;1.00;;;;;;5018192;28;20080;-29
2022/08/30 10:14:02;;;;;;;2.55;0.80;;;25.30;1.00;;;;;;5036054;28;20045;-28
2022/08/30 10:16:44;;;;;;;2.20;0.63;;;24.90;1.00;;;;;;5035512;28;20544;-28
2022/08/30 10:19:40;;;;;;;7.57;0.90;;;24.70;1.00;;;;;;5035969;28;20475;-29
2022/08/30 10:22:30;;;;;;;1.75;0.90;;;25.00;1.00;;;;;;5034983;28;20456;-28
2022/08/30 10:25:24;;;;;;;1.80;0.50;;;25.50;1.00;;;;;;5036684;28;20037;-28
2022/08/30 10:28:09;;;;;;;3.95;0.50;;;25.80;1.00;;;;;;5035792;28;20128;-28
2022/08/30 10:30:39;;;;;;;1.52;0.50;;;26.10;1.00;;;;;;5035768;28;20049;-29
2022/08/30 10:33:15;;;;;;;0.95;0.60;;;26.00;1.00;;;;;;5034665;28;20053;-28
2022/08/30 10:35:49;;;;;;;1.33;0.68;;;26.40;1.00;;;;;;5035376;28;20064;-30
2022/08/30 10:38:31;;;;;;;1.65;0.63;;;26.70;1.00;;;;;;5035603;28;20475;-28
2022/08/30 10:41:26;;;;;;;1.80;0.93;;;26.80;1.00;;;;;;5035385;28;20041;-29
2022/08/30 10:44:35;;;;;;;1.67;0.70;;;26.70;1.00;;;;;;5035169;28;20042;-29
2022/08/30 10:47:45;;;;;;;3.63;0.70;;;26.70;1.00;;;;;;5018523;28;20046;-28
2022/08/30 10:50:27;;;;;;;2.40;1.00;;;26.20;1.00;;;;;;5031280;28;20041;-28
2022/08/30 10:53:26;;;;;;;2.20;1.00;;;26.60;1.00;;;;;;5035392;28;20056;-29
2022/08/30 10:56:11;;;;;;;1.45;0.60;;;26.70;1.00;;;;;;5034470;28;20128;-29
2022/08/30 10:58:39;;;;;;;3.42;0.70;;;26.70;1.00;;;;;;5038577;28;20091;-29
2022/08/30 11:01:20;;;;;;;1.35;0.70;;;26.90;1.00;;;;;;5041280;28;20056;-29
2022/08/30 11:04:12;;;;;;;2.47;0.97;;;27.20;1.00;;;;;;5024757;28;20045;-28
2022/08/30 11:07:28;;;;;;;3.08;0.70;;;26.90;1.00;;;;;;5027162;28;20057;-29
2022/08/30 11:10:27;;;;;;;2.63;1.17;;;27.00;1.00;;;;;;5046214;28;20498;-30
2022/08/30 11:13:10;;;;;;;2.05;0.68;;;26.90;1.00;;;;;;5029398;28;20510;-29
2022/08/30 11:16:06;;;;;;;1.88;0.60;;;27.00;1.00;;;;;;5034943;28;20110;-29
2022/08/30 11:18:44;;;;;;;2.80;0.60;;;26.80;1.00;;;;;;5016482;28;20092;-29
2022/08/30 11:21:36;;;;;;;2.95;0.70;;;26.60;1.00;;;;;;5030086;28;20038;-29
2022/08/30 11:24:21;;;;;;;1.42;0.65;;;26.90;1.00;;;;;;5029075;28;20044;-28
2022/08/30 11:26:50;;;;;;;3.70;0.88;;;26.60;1.00;;;;;;5030541;28;20052;-29
2022/08/30 11:29:39;;;;;;;2.90;0.85;;;25.40;1.00;;;;;;5030032;28;20519;-31
2022/08/30 11:32:17;;;;;;;1.48;0.80;;;25.00;1.00;;;;;;5032362;28;20060;-29
2022/08/30 11:34:48;;;;;;;3.65;0.70;;;25.70;1.00;;;;;;5048842;28;20056;-29
2022/08/30 11:37:38;;;;;;;2.22;0.88;;;26.20;1.00;;;;;;5036067;28;20053;-29
2022/08/30 11:40:07;;;;;;;4.47;1.10;;;26.60;1.00;;;;;;5031160;28;20042;-29
2022/08/30 11:42:43;;;;;;;2.58;0.68;;;26.50;1.00;;;;;;5034106;28;20493;-29
2022/08/30 11:45:47;;;;;;;3.47;0.90;;;26.70;1.00;;;;;;5033556;28;20106;-29
2022/08/30 11:48:43;;;;;;;4.18;0.70;;;27.00;1.00;;;;;;5028629;28;20471;-28
2022/08/30 11:51:38;;;;;;;3.03;0.73;;;26.90;1.00;;;;;;5030052;28;20046;-29
2022/08/30 11:54:37;;;;;;;3.50;0.93;;;26.70;1.00;;;;;;5033251;28;20458;-28
2022/08/30 11:57:24;;;;;;;3.08;2.30;;;26.90;1.00;;;;;;5028576;28;20048;-28
2022/08/30 12:00:10;;;;;;;2.53;0.80;;;27.20;1.00;;;;;;5033491;28;20048;-29
2022/08/30 12:02:57;;;;;;;1.90;0.75;;;27.60;1.00;;;;;;5048552;28;20476;-29
2022/08/30 12:05:41;;;;;;;3.60;1.00;;;28.10;1.00;;;;;;5032336;28;20099;-29
2022/08/30 12:08:39;;;;;;;1.98;0.55;;;27.60;1.00;;;;;;5032371;28;20049;-29
2022/08/30 12:11:10;;;;;;;3.55;0.82;;;26.80;1.00;;;;;;5016468;28;20751;-29
2022/08/30 12:13:39;;;;;;;2.40;1.00;;;26.70;1.00;;;;;;5032205;28;20476;-29
2022/08/30 12:16:14;;;;;;;7.63;0.82;;;26.80;1.00;;;;;;5030463;28;20124;-29
2022/08/30 12:18:44;;;;;;;2.97;0.90;;;27.10;1.00;;;;;;5030886;28;20124;-29
2022/08/30 12:21:18;;;;;;;1.85;0.93;;;27.50;1.00;;;;;;5032691;28;20061;-28
2022/08/30 12:23:49;;;;;;;2.58;0.60;;;27.70;1.00;;;;;;5033804;28;20402;-29
2022/08/30 12:26:23;;;;;;;4.30;0.90;;;27.90;1.00;;;;;;5013673;28;20045;-29
2022/08/30 12:29:04;;;;;;;2.78;1.05;;;27.90;1.00;;;;;;5029532;28;20045;-29
2022/08/30 12:31:50;;;;;;;2.15;0.80;;;27.90;1.00;;;;;;5029121;28;20537;-29
2022/08/30 12:34:36;;;;;;;4.72;1.25;;;27.70;1.00;;;;;;5031987;28;20084;-29
2022/08/30 12:37:04;;;;;;;2.53;0.80;;;27.40;1.00;;;;;;5026972;28;20229;-29
2022/08/30 12:39:34;;;;;;;1.30;0.60;;;27.20;1.00;;;;;;5031253;28;20124;-30
2022/08/30 12:42:27;;;;;;;1.35;0.50;;;27.00;1.00;;;;;;5043450;28;20905;-29
2022/08/30 12:44:59;;;;;;;4.32;0.88;;;27.20;1.00;;;;;;5009974;28;20110;-29
2022/08/30 12:47:48;;;;;;;1.63;1.10;;;27.20;1.00;;;;;;5027496;28;20511;-30
2022/08/30 12:50:26;;;;;;;2.05;0.85;;;27.10;1.00;;;;;;5021567;28;20180;-29
2022/08/30 12:53:01;;;;;;;3.70;1.20;;;27.00;1.00;;;;;;5033602;28;20167;-29
2022/08/30 12:55:29;;;;;;;;;;;26.60;1.00;;;;;;5027717;28;20045;-29
2022/08/30 12:58:04;;;;;;;3.75;2.10;;;26.30;1.00;;;;;;5039896;28;19921;-28
2022/08/30 13:00:38;;;;;;;3.10;1.40;;;26.10;1.00;;;;;;5036461;28;20045;-29
2022/08/30 13:03:44;;;;;;;1.73;0.70;;;26.30;1.00;;;;;;5052368;28;20053;-28
2022/08/30 13:06:10;;;;;;;2.38;0.82;;;26.10;1.00;;;;;;5036491;28;20070;-29
2022/08/30 13:08:44;;;;;;;3.75;1.08;;;25.60;1.00;;;;;;5039285;28;20081;-28
2022/08/30 13:11:24;;;;;;;2.55;0.85;;;25.90;1.00;;;;;;5053637;28;20399;-28